WXM80 ListenWXM80 Stop

You find our weather info also at:

UK Metoffice

WeatherCloud

Weather Underground

Northeastern Weather Network

AWEKAS

Citizen Weather Observer Program (CWOP)

HAMweather, WeatherForYou, PWS Weather


Weather Underground History page Text

Daily Summary for July 4, 2017 Units:  Both    English   Metric
« Previous Day
Next Day »
Daily Weekly Monthly Yearly Custom
  High: Low: Average:
Temperature: 90.8 °F /  32.7 °C 65.3 °F /  18.5 °C 76.2 °F /  24.6 °C
Dew Point: 68.2 °F /  20.1 °C 58.9 °F /  14.9 °C 63.9 °F /  17.7 °C
Humidity: 95 % 41 % 69 %
Wind Speed: 3.9 mph /  6.3 km/h - 0.6 mph /  1 km/h
Wind Gust: 6.9 mph /  11.1 km/h - -
Wind:- - SW
Pressure: 30.07 in /  1018.2 hPa 29.95 in /  1014.1 hPa -
Precipitation: 0.04 in /  1.02 mm    
Historical Graphs
 
 
Tabular Data for July 4, 2017
Time Temperature Dew Point Pressure Wind Wind Speed Wind Gust Humidity Rainfall Rate (Hourly)
00:04 72.7 °F /  22.6 °C 66.9 °F /  19.4 °C 29.98 in /  1015.1 hPa SW 1.9 mph /  3.1 km/h 5.8 mph /  9.3 km/h 82 % 0.00 in /  0 mm
00:09 72.7 °F /  22.6 °C 67.9 °F /  19.9 °C 29.98 in /  1015.1 hPa WNW 1.1 mph /  1.8 km/h 3.5 mph /  5.6 km/h 85 % 0.02 in /  0.51 mm
00:14 72.6 °F /  22.6 °C 68.2 °F /  20.1 °C 29.98 in /  1015.1 hPa WNW 0.2 mph /  0.3 km/h 6.9 mph /  11.1 km/h 86 % 0.03 in /  0.76 mm
00:19 72.5 °F /  22.5 °C 68.1 °F /  20.1 °C 29.98 in /  1015.1 hPa NW 0.2 mph /  0.3 km/h 1.2 mph /  1.9 km/h 86 % 0.03 in /  0.76 mm
00:24 72.3 °F /  22.4 °C 67.9 °F /  19.9 °C 29.97 in /  1014.8 hPa Calm     86 % 0.03 in /  0.76 mm
00:29 72.2 °F /  22.3 °C 67.8 °F /  19.9 °C 29.97 in /  1014.8 hPa Calm     86 % 0.03 in /  0.76 mm
00:34 72.0 °F /  22.2 °C 67.6 °F /  19.8 °C 29.97 in /  1014.8 hPa NW 0.9 mph /  1.4 km/h 2.3 mph /  3.7 km/h 86 % 0.03 in /  0.76 mm
00:39 71.8 °F /  22.1 °C 67.4 °F /  19.7 °C 29.97 in /  1014.8 hPa NW 0.6 mph /  1 km/h 1.2 mph /  1.9 km/h 86 % 0.03 in /  0.76 mm
00:44 71.7 °F /  22.1 °C 67.3 °F /  19.6 °C 29.97 in /  1014.8 hPa Calm   1.2 mph /  1.9 km/h 86 % 0.03 in /  0.76 mm
00:50 71.5 °F /  21.9 °C 67.4 °F /  19.7 °C 29.97 in /  1014.8 hPa Calm     87 % 0.03 in /  0.76 mm
00:55 71.4 °F /  21.9 °C 67.3 °F /  19.6 °C 29.97 in /  1014.8 hPa Calm     87 % 0.03 in /  0.76 mm
01:00 71.3 °F /  21.8 °C 67.6 °F /  19.8 °C 29.97 in /  1014.8 hPa Calm   1.2 mph /  1.9 km/h 88 % 0.03 in /  0.76 mm
01:05 71.2 °F /  21.8 °C 67.5 °F /  19.7 °C 29.97 in /  1014.8 hPa NW 0.2 mph /  0.3 km/h 1.0 mph /  1.6 km/h 88 % 0.03 in /  0.76 mm
01:10 71.1 °F /  21.7 °C 67.7 °F /  19.8 °C 29.97 in /  1014.8 hPa Calm     89 % 0.01 in /  0.25 mm
01:15 71.0 °F /  21.7 °C 67.6 °F /  19.8 °C 29.96 in /  1014.4 hPa Calm   1.2 mph /  1.9 km/h 89 % 0.00 in /  0 mm
01:20 71.0 °F /  21.7 °C 67.6 °F /  19.8 °C 29.97 in /  1014.8 hPa Calm     89 % 0.01 in /  0.25 mm
01:25 70.9 °F /  21.6 °C 67.8 °F /  19.9 °C 29.96 in /  1014.4 hPa Calm     90 % 0.01 in /  0.25 mm
01:30 70.8 °F /  21.6 °C 67.7 °F /  19.8 °C 29.96 in /  1014.4 hPa Calm     90 % 0.01 in /  0.25 mm
01:35 70.8 °F /  21.6 °C 68.0 °F /  20 °C 29.96 in /  1014.4 hPa Calm     91 % 0.01 in /  0.25 mm
01:40 70.7 °F /  21.5 °C 67.9 °F /  19.9 °C 29.96 in /  1014.4 hPa Calm     91 % 0.01 in /  0.25 mm
01:45 70.7 °F /  21.5 °C 67.9 °F /  19.9 °C 29.96 in /  1014.4 hPa Calm     91 % 0.01 in /  0.25 mm
01:50 70.6 °F /  21.4 °C 67.8 °F /  19.9 °C 29.96 in /  1014.4 hPa Calm     91 % 0.01 in /  0.25 mm
01:55 70.5 °F /  21.4 °C 67.7 °F /  19.8 °C 29.96 in /  1014.4 hPa Calm     91 % 0.01 in /  0.25 mm
02:00 70.4 °F /  21.3 °C 67.6 °F /  19.8 °C 29.96 in /  1014.4 hPa NW 0.2 mph /  0.3 km/h 1.2 mph /  1.9 km/h 91 % 0.01 in /  0.25 mm
02:05 70.3 °F /  21.3 °C 67.5 °F /  19.7 °C 29.95 in /  1014.1 hPa Calm     91 % 0.01 in /  0.25 mm
02:10 70.2 °F /  21.2 °C 67.4 °F /  19.7 °C 29.96 in /  1014.4 hPa Calm     91 % 0.01 in /  0.25 mm
02:11 70.2 °F /  21.2 °C 67.1 °F /  19.5 °C 29.96 in /  1014.4 hPa Calm     90 % 0.01 in /  0.25 mm
02:16 70.1 °F /  21.2 °C 67.0 °F /  19.4 °C 29.96 in /  1014.4 hPa Calm     90 % 0.00 in /  0 mm
02:21 69.9 °F /  21.1 °C 66.8 °F /  19.3 °C 29.96 in /  1014.4 hPa Calm     90 % 0.00 in /  0 mm
02:26 69.8 °F /  21 °C 66.7 °F /  19.3 °C 29.95 in /  1014.1 hPa Calm     90 % 0.00 in /  0 mm
02:31 69.6 °F /  20.9 °C 66.5 °F /  19.2 °C 29.95 in /  1014.1 hPa Calm     90 % 0.00 in /  0 mm
02:37 69.5 °F /  20.8 °C 66.4 °F /  19.1 °C 29.96 in /  1014.4 hPa NW 0.2 mph /  0.3 km/h 1.0 mph /  1.6 km/h 90 % 0.00 in /  0 mm
02:42 69.4 °F /  20.8 °C 66.3 °F /  19.1 °C 29.96 in /  1014.4 hPa NW 0.4 mph /  0.6 km/h 2.3 mph /  3.7 km/h 90 % 0.00 in /  0 mm
02:47 69.2 °F /  20.7 °C 66.1 °F /  18.9 °C 29.96 in /  1014.4 hPa Calm     90 % 0.00 in /  0 mm
02:52 69.1 °F /  20.6 °C 66.0 °F /  18.9 °C 29.96 in /  1014.4 hPa Calm     90 % 0.00 in /  0 mm
02:57 68.9 °F /  20.5 °C 65.8 °F /  18.8 °C 29.96 in /  1014.4 hPa Calm     90 % 0.00 in /  0 mm
03:02 68.8 °F /  20.4 °C 65.7 °F /  18.7 °C 29.96 in /  1014.4 hPa Calm     90 % 0.00 in /  0 mm
03:07 68.6 °F /  20.3 °C 65.5 °F /  18.6 °C 29.96 in /  1014.4 hPa Calm     90 % 0.00 in /  0 mm
03:12 68.5 °F /  20.3 °C 65.4 °F /  18.6 °C 29.96 in /  1014.4 hPa Calm     90 % 0.00 in /  0 mm
03:17 68.3 °F /  20.2 °C 65.3 °F /  18.5 °C 29.96 in /  1014.4 hPa Calm     90 % 0.00 in /  0 mm
03:22 68.2 °F /  20.1 °C 65.2 °F /  18.4 °C 29.96 in /  1014.4 hPa Calm     90 % 0.00 in /  0 mm
03:27 68.1 °F /  20.1 °C 65.1 °F /  18.4 °C 29.97 in /  1014.8 hPa Calm     90 % 0.00 in /  0 mm
03:32 68.0 °F /  20 °C 65.0 °F /  18.3 °C 29.97 in /  1014.8 hPa Calm     90 % 0.00 in /  0 mm
03:37 67.9 °F /  19.9 °C 64.9 °F /  18.3 °C 29.97 in /  1014.8 hPa Calm     90 % 0.00 in /  0 mm
03:42 67.8 °F /  19.9 °C 64.8 °F /  18.2 °C 29.96 in /  1014.4 hPa Calm     90 % 0.00 in /  0 mm
03:47 67.7 °F /  19.8 °C 65.0 °F /  18.3 °C 29.97 in /  1014.8 hPa Calm     91 % 0.00 in /  0 mm
03:52 67.6 °F /  19.8 °C 64.6 °F /  18.1 °C 29.97 in /  1014.8 hPa Calm     90 % 0.00 in /  0 mm
03:57 67.5 °F /  19.7 °C 64.5 °F /  18.1 °C 29.97 in /  1014.8 hPa Calm     90 % 0.00 in /  0 mm
04:02 67.4 °F /  19.7 °C 64.7 °F /  18.2 °C 29.97 in /  1014.8 hPa Calm     91 % 0.00 in /  0 mm
04:07 67.3 °F /  19.6 °C 64.6 °F /  18.1 °C 29.97 in /  1014.8 hPa Calm     91 % 0.00 in /  0 mm
04:12 67.2 °F /  19.6 °C 64.5 °F /  18.1 °C 29.97 in /  1014.8 hPa Calm     91 % 0.00 in /  0 mm
04:17 67.1 °F /  19.5 °C 64.4 °F /  18 °C 29.97 in /  1014.8 hPa Calm     91 % 0.00 in /  0 mm
04:22 67.0 °F /  19.4 °C 64.3 °F /  17.9 °C 29.97 in /  1014.8 hPa Calm     91 % 0.00 in /  0 mm
04:27 66.9 °F /  19.4 °C 64.2 °F /  17.9 °C 29.97 in /  1014.8 hPa Calm     91 % 0.00 in /  0 mm
04:32 66.8 °F /  19.3 °C 64.1 °F /  17.8 °C 29.97 in /  1014.8 hPa Calm     91 % 0.00 in /  0 mm
04:37 66.7 °F /  19.3 °C 64.0 °F /  17.8 °C 29.98 in /  1015.1 hPa Calm     91 % 0.00 in /  0 mm
04:42 66.6 °F /  19.2 °C 63.9 °F /  17.7 °C 29.98 in /  1015.1 hPa Calm     91 % 0.00 in /  0 mm
04:47 66.5 °F /  19.2 °C 63.8 °F /  17.7 °C 29.98 in /  1015.1 hPa Calm     91 % 0.00 in /  0 mm
04:52 66.4 °F /  19.1 °C 63.7 °F /  17.6 °C 29.98 in /  1015.1 hPa Calm     91 % 0.00 in /  0 mm
04:57 66.3 °F /  19.1 °C 63.6 °F /  17.6 °C 29.98 in /  1015.1 hPa Calm     91 % 0.00 in /  0 mm
05:02 66.2 °F /  19 °C 63.5 °F /  17.5 °C 29.99 in /  1015.5 hPa Calm     91 % 0.00 in /  0 mm
05:07 66.1 °F /  18.9 °C 63.7 °F /  17.6 °C 29.99 in /  1015.5 hPa Calm     92 % 0.00 in /  0 mm
05:12 66.0 °F /  18.9 °C 63.6 °F /  17.6 °C 29.99 in /  1015.5 hPa Calm     92 % 0.00 in /  0 mm
05:17 65.9 °F /  18.8 °C 63.5 °F /  17.5 °C 29.99 in /  1015.5 hPa Calm     92 % 0.00 in /  0 mm
05:22 65.8 °F /  18.8 °C 63.4 °F /  17.4 °C 29.99 in /  1015.5 hPa Calm     92 % 0.00 in /  0 mm
05:28 65.7 °F /  18.7 °C 63.3 °F /  17.4 °C 29.99 in /  1015.5 hPa Calm     92 % 0.00 in /  0 mm
05:33 65.6 °F /  18.7 °C 63.2 °F /  17.3 °C 29.99 in /  1015.5 hPa Calm     92 % 0.00 in /  0 mm
05:38 65.6 °F /  18.7 °C 63.2 °F /  17.3 °C 29.99 in /  1015.5 hPa Calm     92 % 0.00 in /  0 mm
05:43 65.5 °F /  18.6 °C 63.1 °F /  17.3 °C 29.99 in /  1015.5 hPa Calm     92 % 0.00 in /  0 mm
05:48 65.4 °F /  18.6 °C 63.0 °F /  17.2 °C 29.99 in /  1015.5 hPa Calm     92 % 0.00 in /  0 mm
05:53 65.4 °F /  18.6 °C 63.0 °F /  17.2 °C 29.99 in /  1015.5 hPa Calm     92 % 0.00 in /  0 mm
05:58 65.4 °F /  18.6 °C 63.0 °F /  17.2 °C 29.99 in /  1015.5 hPa Calm     92 % 0.00 in /  0 mm
06:03 65.3 °F /  18.5 °C 63.2 °F /  17.3 °C 29.99 in /  1015.5 hPa Calm     93 % 0.00 in /  0 mm
06:08 65.3 °F /  18.5 °C 63.2 °F /  17.3 °C 30.00 in /  1015.8 hPa Calm     93 % 0.00 in /  0 mm
06:13 65.3 °F /  18.5 °C 63.2 °F /  17.3 °C 30.00 in /  1015.8 hPa Calm     93 % 0.00 in /  0 mm
06:18 65.3 °F /  18.5 °C 63.2 °F /  17.3 °C 30.00 in /  1015.8 hPa Calm   1.2 mph /  1.9 km/h 93 % 0.00 in /  0 mm
06:28 65.5 °F /  18.6 °C 63.7 °F /  17.6 °C 30.00 in /  1015.8 hPa Calm     94 % 0.00 in /  0 mm
06:33 65.7 °F /  18.7 °C 63.9 °F /  17.7 °C 30.01 in /  1016.1 hPa Calm     94 % 0.00 in /  0 mm
06:38 65.9 °F /  18.8 °C 64.1 °F /  17.8 °C 30.01 in /  1016.1 hPa Calm     94 % 0.00 in /  0 mm
06:43 66.2 °F /  19 °C 64.7 °F /  18.2 °C 30.01 in /  1016.1 hPa SW 0.1 mph /  0.2 km/h 1.2 mph /  1.9 km/h 95 % 0.00 in /  0 mm
06:45 66.4 °F /  19.1 °C 64.9 °F /  18.3 °C 30.01 in /  1016.1 hPa East 0.2 mph /  0.3 km/h 1.2 mph /  1.9 km/h 95 % 0.00 in /  0 mm
06:50 66.7 °F /  19.3 °C 65.2 °F /  18.4 °C 30.02 in /  1016.5 hPa Calm   1.2 mph /  1.9 km/h 95 % 0.00 in /  0 mm
06:56 66.7 °F /  19.3 °C 65.2 °F /  18.4 °C 30.02 in /  1016.5 hPa Calm   1.0 mph /  1.6 km/h 95 % 0.00 in /  0 mm
06:57 66.7 °F /  19.3 °C 65.2 °F /  18.4 °C 30.02 in /  1016.5 hPa Calm     95 % 0.00 in /  0 mm
07:02 66.8 °F /  19.3 °C 65.3 °F /  18.5 °C 30.02 in /  1016.5 hPa Calm   1.2 mph /  1.9 km/h 95 % 0.00 in /  0 mm
07:04 66.8 °F /  19.3 °C 65.3 °F /  18.5 °C 30.02 in /  1016.5 hPa Calm   1.2 mph /  1.9 km/h 95 % 0.00 in /  0 mm
07:09 66.8 °F /  19.3 °C 65.0 °F /  18.3 °C 30.02 in /  1016.5 hPa ENE 0.2 mph /  0.3 km/h 2.3 mph /  3.7 km/h 94 % 0.00 in /  0 mm
07:14 66.9 °F /  19.4 °C 65.1 °F /  18.4 °C 30.03 in /  1016.8 hPa ENE 0.3 mph /  0.5 km/h 1.2 mph /  1.9 km/h 94 % 0.00 in /  0 mm
07:19 66.9 °F /  19.4 °C 65.1 °F /  18.4 °C 30.03 in /  1016.8 hPa NE 0.5 mph /  0.8 km/h 2.3 mph /  3.7 km/h 94 % 0.00 in /  0 mm
07:24 66.9 °F /  19.4 °C 65.1 °F /  18.4 °C 30.02 in /  1016.5 hPa NE 0.3 mph /  0.5 km/h 1.2 mph /  1.9 km/h 94 % 0.00 in /  0 mm
07:29 67.0 °F /  19.4 °C 64.9 °F /  18.3 °C 30.03 in /  1016.8 hPa NNW 0.3 mph /  0.5 km/h 1.2 mph /  1.9 km/h 93 % 0.00 in /  0 mm
07:34 67.1 °F /  19.5 °C 65.0 °F /  18.3 °C 30.03 in /  1016.8 hPa NNE 0.1 mph /  0.2 km/h 1.2 mph /  1.9 km/h 93 % 0.00 in /  0 mm
07:39 67.2 °F /  19.6 °C 65.1 °F /  18.4 °C 30.03 in /  1016.8 hPa ENE 1.2 mph /  1.9 km/h 3.5 mph /  5.6 km/h 93 % 0.00 in /  0 mm
07:44 67.4 °F /  19.7 °C 65.3 °F /  18.5 °C 30.03 in /  1016.8 hPa NNE 1.6 mph /  2.6 km/h 3.5 mph /  5.6 km/h 93 % 0.00 in /  0 mm
07:49 67.5 °F /  19.7 °C 65.4 °F /  18.6 °C 30.03 in /  1016.8 hPa North 2.0 mph /  3.2 km/h 3.5 mph /  5.6 km/h 93 % 0.00 in /  0 mm
07:54 67.6 °F /  19.8 °C 65.2 °F /  18.4 °C 30.03 in /  1016.8 hPa NNE 1.1 mph /  1.8 km/h 3.5 mph /  5.6 km/h 92 % 0.00 in /  0 mm
07:59 67.7 °F /  19.8 °C 65.0 °F /  18.3 °C 30.04 in /  1017.2 hPa NNE 1.2 mph /  1.9 km/h 2.3 mph /  3.7 km/h 91 % 0.00 in /  0 mm
08:04 67.9 °F /  19.9 °C 64.9 °F /  18.3 °C 30.04 in /  1017.2 hPa NNE 0.2 mph /  0.3 km/h   90 % 0.00 in /  0 mm
08:09 68.1 °F /  20.1 °C 65.1 °F /  18.4 °C 30.04 in /  1017.2 hPa Calm     90 % 0.00 in /  0 mm
08:14 68.3 °F /  20.2 °C 65.3 °F /  18.5 °C 30.05 in /  1017.5 hPa Calm   1.2 mph /  1.9 km/h 90 % 0.00 in /  0 mm
08:19 68.4 °F /  20.2 °C 65.0 °F /  18.3 °C 30.04 in /  1017.2 hPa Calm     89 % 0.00 in /  0 mm
08:24 68.5 °F /  20.3 °C 64.8 °F /  18.2 °C 30.04 in /  1017.2 hPa Calm     88 % 0.00 in /  0 mm
08:29 68.8 °F /  20.4 °C 65.1 °F /  18.4 °C 30.04 in /  1017.2 hPa Calm   1.2 mph /  1.9 km/h 88 % 0.00 in /  0 mm
08:34 68.9 °F /  20.5 °C 65.2 °F /  18.4 °C 30.05 in /  1017.5 hPa NNE 0.8 mph /  1.3 km/h 2.3 mph /  3.7 km/h 88 % 0.00 in /  0 mm
08:39 69.1 °F /  20.6 °C 64.7 °F /  18.2 °C 30.05 in /  1017.5 hPa North 0.1 mph /  0.2 km/h 3.5 mph /  5.6 km/h 86 % 0.00 in /  0 mm
08:44 69.3 °F /  20.7 °C 64.6 °F /  18.1 °C 30.05 in /  1017.5 hPa North 0.6 mph /  1 km/h 2.0 mph /  3.2 km/h 85 % 0.00 in /  0 mm
08:49 69.5 °F /  20.8 °C 64.1 °F /  17.8 °C 30.05 in /  1017.5 hPa North 1.8 mph /  2.9 km/h 3.5 mph /  5.6 km/h 83 % 0.00 in /  0 mm
08:54 69.7 °F /  20.9 °C 64.0 °F /  17.8 °C 30.04 in /  1017.2 hPa North 0.5 mph /  0.8 km/h 3.5 mph /  5.6 km/h 82 % 0.00 in /  0 mm
08:59 69.8 °F /  21 °C 62.6 °F /  17 °C 30.04 in /  1017.2 hPa Calm   2.3 mph /  3.7 km/h 78 % 0.00 in /  0 mm
09:05 70.0 °F /  21.1 °C 62.8 °F /  17.1 °C 30.05 in /  1017.5 hPa North 1.6 mph /  2.6 km/h 3.5 mph /  5.6 km/h 78 % 0.00 in /  0 mm
09:10 70.2 °F /  21.2 °C 63.4 °F /  17.4 °C 30.04 in /  1017.2 hPa North 1.2 mph /  1.9 km/h 3.5 mph /  5.6 km/h 79 % 0.00 in /  0 mm
09:15 70.3 °F /  21.3 °C 62.7 °F /  17.1 °C 30.04 in /  1017.2 hPa Calm   2.3 mph /  3.7 km/h 77 % 0.00 in /  0 mm
09:20 70.5 °F /  21.4 °C 62.9 °F /  17.2 °C 30.04 in /  1017.2 hPa North 2.4 mph /  3.9 km/h 3.5 mph /  5.6 km/h 77 % 0.00 in /  0 mm
09:25 70.6 °F /  21.4 °C 62.7 °F /  17.1 °C 30.05 in /  1017.5 hPa NNE 0.2 mph /  0.3 km/h 1.2 mph /  1.9 km/h 76 % 0.00 in /  0 mm
09:30 70.8 °F /  21.6 °C 62.5 °F /  16.9 °C 30.05 in /  1017.5 hPa North 0.6 mph /  1 km/h 3.5 mph /  5.6 km/h 75 % 0.00 in /  0 mm
09:35 71.0 °F /  21.7 °C 62.3 °F /  16.8 °C 30.04 in /  1017.2 hPa NNE 0.6 mph /  1 km/h 2.3 mph /  3.7 km/h 74 % 0.00 in /  0 mm
09:40 71.1 °F /  21.7 °C 62.4 °F /  16.9 °C 30.04 in /  1017.2 hPa Calm     74 % 0.00 in /  0 mm
09:45 71.3 °F /  21.8 °C 63.0 °F /  17.2 °C 30.05 in /  1017.5 hPa Calm     75 % 0.00 in /  0 mm
09:50 71.5 °F /  21.9 °C 63.2 °F /  17.3 °C 30.05 in /  1017.5 hPa Calm     75 % 0.00 in /  0 mm
09:55 71.6 °F /  22 °C 62.1 °F /  16.7 °C 30.04 in /  1017.2 hPa Calm   1.2 mph /  1.9 km/h 72 % 0.00 in /  0 mm
10:00 71.7 °F /  22.1 °C 63.4 °F /  17.4 °C 30.04 in /  1017.2 hPa NE 0.1 mph /  0.2 km/h 1.2 mph /  1.9 km/h 75 % 0.00 in /  0 mm
10:05 71.8 °F /  22.1 °C 63.1 °F /  17.3 °C 30.04 in /  1017.2 hPa NE 0.9 mph /  1.4 km/h 2.3 mph /  3.7 km/h 74 % 0.00 in /  0 mm
10:10 71.9 °F /  22.2 °C 62.8 °F /  17.1 °C 30.04 in /  1017.2 hPa Calm     73 % 0.00 in /  0 mm
10:15 72.1 °F /  22.3 °C 62.6 °F /  17 °C 30.04 in /  1017.2 hPa Calm     72 % 0.00 in /  0 mm
10:20 72.5 °F /  22.5 °C 63.4 °F /  17.4 °C 30.04 in /  1017.2 hPa NNE 0.7 mph /  1.1 km/h 2.0 mph /  3.2 km/h 73 % 0.00 in /  0 mm
10:25 72.8 °F /  22.7 °C 63.2 °F /  17.3 °C 30.04 in /  1017.2 hPa NW 1.0 mph /  1.6 km/h 2.3 mph /  3.7 km/h 72 % 0.00 in /  0 mm
10:30 73.1 °F /  22.8 °C 63.5 °F /  17.5 °C 30.04 in /  1017.2 hPa NW 0.9 mph /  1.4 km/h 3.5 mph /  5.6 km/h 72 % 0.00 in /  0 mm
10:35 73.4 °F /  23 °C 63.8 °F /  17.7 °C 30.04 in /  1017.2 hPa NW 0.5 mph /  0.8 km/h 2.3 mph /  3.7 km/h 72 % 0.00 in /  0 mm
10:40 73.6 °F /  23.1 °C 64.0 °F /  17.8 °C 30.04 in /  1017.2 hPa NW 0.1 mph /  0.2 km/h 3.5 mph /  5.6 km/h 72 % 0.00 in /  0 mm
10:45 73.8 °F /  23.2 °C 64.2 °F /  17.9 °C 30.04 in /  1017.2 hPa NW 0.5 mph /  0.8 km/h 2.3 mph /  3.7 km/h 72 % 0.00 in /  0 mm
10:51 74.6 °F /  23.7 °C 66.5 °F /  19.2 °C 30.04 in /  1017.2 hPa NW 1.9 mph /  3.1 km/h 2.0 mph /  3.2 km/h 76 % 0.00 in /  0 mm
10:56 75.1 °F /  23.9 °C 64.2 °F /  17.9 °C 30.03 in /  1016.8 hPa NNW 1.2 mph /  1.9 km/h 3.5 mph /  5.6 km/h 69 % 0.00 in /  0 mm
11:01 75.9 °F /  24.4 °C 65.0 °F /  18.3 °C 30.04 in /  1017.2 hPa North 1.2 mph /  1.9 km/h 4.0 mph /  6.4 km/h 69 % 0.00 in /  0 mm
11:11 77.3 °F /  25.2 °C 63.7 °F /  17.6 °C 30.04 in /  1017.2 hPa NNW 1.7 mph /  2.7 km/h 3.5 mph /  5.6 km/h 63 % 0.00 in /  0 mm
11:16 77.8 °F /  25.4 °C 64.6 °F /  18.1 °C 30.04 in /  1017.2 hPa NW 1.1 mph /  1.8 km/h 3.5 mph /  5.6 km/h 64 % 0.00 in /  0 mm
11:21 78.4 °F /  25.8 °C 63.8 °F /  17.7 °C 30.04 in /  1017.2 hPa NW 1.2 mph /  1.9 km/h 4.0 mph /  6.4 km/h 61 % 0.00 in /  0 mm
11:26 79.2 °F /  26.2 °C 66.9 °F /  19.4 °C 30.03 in /  1016.8 hPa North 1.8 mph /  2.9 km/h 4.0 mph /  6.4 km/h 66 % 0.00 in /  0 mm
11:31 80.3 °F /  26.8 °C 66.1 °F /  18.9 °C 30.04 in /  1017.2 hPa NNE 2.0 mph /  3.2 km/h 3.5 mph /  5.6 km/h 62 % 0.00 in /  0 mm
11:36 81.1 °F /  27.3 °C 64.9 °F /  18.3 °C 30.03 in /  1016.8 hPa NW 2.0 mph /  3.2 km/h 3.5 mph /  5.6 km/h 58 % 0.00 in /  0 mm
11:41 81.6 °F /  27.6 °C 64.4 °F /  18 °C 30.03 in /  1016.8 hPa North 1.1 mph /  1.8 km/h 2.3 mph /  3.7 km/h 56 % 0.00 in /  0 mm
11:46 82.1 °F /  27.8 °C 61.6 °F /  16.4 °C 30.03 in /  1016.8 hPa West 3.2 mph /  5.1 km/h 4.6 mph /  7.4 km/h 50 % 0.00 in /  0 mm
11:56 83.2 °F /  28.4 °C 64.3 °F /  17.9 °C 30.03 in /  1016.8 hPa North 3.1 mph /  5 km/h 3.5 mph /  5.6 km/h 53 % 0.00 in /  0 mm
12:01 83.7 °F /  28.7 °C 61.9 °F /  16.6 °C 30.03 in /  1016.8 hPa NNW 1.2 mph /  1.9 km/h 3.0 mph /  4.8 km/h 48 % 0.00 in /  0 mm
12:06 84.1 °F /  28.9 °C 62.9 °F /  17.2 °C 30.03 in /  1016.8 hPa NW 0.7 mph /  1.1 km/h 2.3 mph /  3.7 km/h 49 % 0.00 in /  0 mm
12:11 84.4 °F /  29.1 °C 60.7 °F /  15.9 °C 30.03 in /  1016.8 hPa WNW 0.9 mph /  1.4 km/h 2.3 mph /  3.7 km/h 45 % 0.00 in /  0 mm
12:16 84.6 °F /  29.2 °C 59.6 °F /  15.3 °C 30.03 in /  1016.8 hPa WNW 0.7 mph /  1.1 km/h 3.5 mph /  5.6 km/h 43 % 0.00 in /  0 mm
12:22 85.0 °F /  29.4 °C 61.9 °F /  16.6 °C 30.03 in /  1016.8 hPa WNW 0.4 mph /  0.6 km/h 2.3 mph /  3.7 km/h 46 % 0.00 in /  0 mm
12:27 85.4 °F /  29.7 °C 59.7 °F /  15.4 °C 30.03 in /  1016.8 hPa NW 1.0 mph /  1.6 km/h 3.0 mph /  4.8 km/h 42 % 0.00 in /  0 mm
12:32 85.8 °F /  29.9 °C 61.4 °F /  16.3 °C 30.03 in /  1016.8 hPa West 3.6 mph /  5.8 km/h 3.6 mph /  5.8 km/h 44 % 0.00 in /  0 mm
12:37 86.1 °F /  30.1 °C 61.6 °F /  16.4 °C 30.03 in /  1016.8 hPa West 0.3 mph /  0.5 km/h 3.5 mph /  5.6 km/h 44 % 0.00 in /  0 mm
12:42 86.5 °F /  30.3 °C 61.3 °F /  16.3 °C 30.03 in /  1016.8 hPa NNW 0.4 mph /  0.6 km/h 3.5 mph /  5.6 km/h 43 % 0.00 in /  0 mm
12:47 87.0 °F /  30.6 °C 61.8 °F /  16.6 °C 30.02 in /  1016.5 hPa NNE 0.9 mph /  1.4 km/h 3.5 mph /  5.6 km/h 43 % 0.00 in /  0 mm
12:52 87.2 °F /  30.7 °C 63.9 °F /  17.7 °C 30.02 in /  1016.5 hPa WNW 0.4 mph /  0.6 km/h 4.0 mph /  6.4 km/h 46 % 0.00 in /  0 mm
12:57 87.3 °F /  30.7 °C 65.2 °F /  18.4 °C 30.02 in /  1016.5 hPa NNE 0.4 mph /  0.6 km/h 3.5 mph /  5.6 km/h 48 % 0.00 in /  0 mm
13:02 87.5 °F /  30.8 °C 62.9 °F /  17.2 °C 30.02 in /  1016.5 hPa West 1.5 mph /  2.4 km/h 2.3 mph /  3.7 km/h 44 % 0.00 in /  0 mm
13:07 87.5 °F /  30.8 °C 62.2 °F /  16.8 °C 30.02 in /  1016.5 hPa WNW 1.8 mph /  2.9 km/h 4.0 mph /  6.4 km/h 43 % 0.00 in /  0 mm
13:12 87.6 °F /  30.9 °C 64.9 °F /  18.3 °C 30.02 in /  1016.5 hPa West 0.6 mph /  1 km/h 3.0 mph /  4.8 km/h 47 % 0.00 in /  0 mm
13:17 87.9 °F /  31.1 °C 66.9 °F /  19.4 °C 30.02 in /  1016.5 hPa West 3.3 mph /  5.3 km/h 4.6 mph /  7.4 km/h 50 % 0.00 in /  0 mm
13:22 88.1 °F /  31.2 °C 63.4 °F /  17.4 °C 30.01 in /  1016.1 hPa NNE 0.3 mph /  0.5 km/h 3.5 mph /  5.6 km/h 44 % 0.00 in /  0 mm
13:27 88.3 °F /  31.3 °C 63.6 °F /  17.6 °C 30.01 in /  1016.1 hPa West 2.2 mph /  3.5 km/h 3.5 mph /  5.6 km/h 44 % 0.00 in /  0 mm
13:32 88.5 °F /  31.4 °C 65.7 °F /  18.7 °C 30.01 in /  1016.1 hPa West 0.9 mph /  1.4 km/h 2.0 mph /  3.2 km/h 47 % 0.00 in /  0 mm
13:37 88.8 °F /  31.6 °C 63.4 °F /  17.4 °C 30.01 in /  1016.1 hPa WSW 2.0 mph /  3.2 km/h 3.5 mph /  5.6 km/h 43 % 0.00 in /  0 mm
13:42 89.0 °F /  31.7 °C 64.3 °F /  17.9 °C 30.01 in /  1016.1 hPa SW 1.7 mph /  2.7 km/h 4.6 mph /  7.4 km/h 44 % 0.00 in /  0 mm
13:47 89.0 °F /  31.7 °C 65.5 °F /  18.6 °C 30.01 in /  1016.1 hPa Calm   1.2 mph /  1.9 km/h 46 % 0.00 in /  0 mm
13:52 89.3 °F /  31.8 °C 64.5 °F /  18.1 °C 30.01 in /  1016.1 hPa SSW 1.9 mph /  3.1 km/h 4.0 mph /  6.4 km/h 44 % 0.00 in /  0 mm
13:57 89.3 °F /  31.8 °C 63.9 °F /  17.7 °C 30.01 in /  1016.1 hPa WSW 1.2 mph /  1.9 km/h 3.5 mph /  5.6 km/h 43 % 0.00 in /  0 mm
14:04 89.5 °F /  31.9 °C 65.4 °F /  18.6 °C 30.00 in /  1015.8 hPa NNW 1.5 mph /  2.4 km/h 2.3 mph /  3.7 km/h 45 % 0.00 in /  0 mm
14:10 89.7 °F /  32.1 °C 65.5 °F /  18.6 °C 30.00 in /  1015.8 hPa North 0.5 mph /  0.8 km/h 2.3 mph /  3.7 km/h 45 % 0.00 in /  0 mm
14:15 89.9 °F /  32.2 °C 65.1 °F /  18.4 °C 30.00 in /  1015.8 hPa WNW 2.0 mph /  3.2 km/h 2.3 mph /  3.7 km/h 44 % 0.00 in /  0 mm
14:20 90.1 °F /  32.3 °C 63.9 °F /  17.7 °C 30.00 in /  1015.8 hPa WNW 3.5 mph /  5.6 km/h 3.5 mph /  5.6 km/h 42 % 0.00 in /  0 mm
14:24 90.3 °F /  32.4 °C 63.4 °F /  17.4 °C 30.00 in /  1015.8 hPa WNW 2.5 mph /  4 km/h 3.5 mph /  5.6 km/h 41 % 0.00 in /  0 mm
14:29 90.3 °F /  32.4 °C 64.1 °F /  17.8 °C 30.00 in /  1015.8 hPa SW 2.9 mph /  4.7 km/h 4.0 mph /  6.4 km/h 42 % 0.00 in /  0 mm
14:35 90.3 °F /  32.4 °C 64.8 °F /  18.2 °C 30.00 in /  1015.8 hPa NW 0.9 mph /  1.4 km/h 2.3 mph /  3.7 km/h 43 % 0.00 in /  0 mm
14:40 90.0 °F /  32.2 °C 63.8 °F /  17.7 °C 30.00 in /  1015.8 hPa WNW 3.2 mph /  5.1 km/h 6.9 mph /  11.1 km/h 42 % 0.00 in /  0 mm
14:45 90.0 °F /  32.2 °C 65.8 °F /  18.8 °C 30.00 in /  1015.8 hPa WNW 1.0 mph /  1.6 km/h 2.3 mph /  3.7 km/h 45 % 0.00 in /  0 mm
14:50 90.1 °F /  32.3 °C 65.2 °F /  18.4 °C 30.00 in /  1015.8 hPa NNW 0.9 mph /  1.4 km/h 3.5 mph /  5.6 km/h 44 % 0.00 in /  0 mm
14:55 90.2 °F /  32.3 °C 65.3 °F /  18.5 °C 30.00 in /  1015.8 hPa NW 0.3 mph /  0.5 km/h 2.3 mph /  3.7 km/h 44 % 0.00 in /  0 mm
15:00 90.4 °F /  32.4 °C 66.8 °F /  19.3 °C 30.00 in /  1015.8 hPa WNW 0.4 mph /  0.6 km/h 2.3 mph /  3.7 km/h 46 % 0.00 in /  0 mm
15:05 90.5 °F /  32.5 °C 64.9 °F /  18.3 °C 30.00 in /  1015.8 hPa WNW 1.8 mph /  2.9 km/h 4.6 mph /  7.4 km/h 43 % 0.00 in /  0 mm
15:10 90.6 °F /  32.6 °C 63.7 °F /  17.6 °C 30.00 in /  1015.8 hPa WNW 1.4 mph /  2.3 km/h 2.3 mph /  3.7 km/h 41 % 0.00 in /  0 mm
15:15 90.8 °F /  32.7 °C 64.5 °F /  18.1 °C 30.00 in /  1015.8 hPa SW 3.4 mph /  5.5 km/h 5.0 mph /  8 km/h 42 % 0.00 in /  0 mm
15:20 90.8 °F /  32.7 °C 63.9 °F /  17.7 °C 30.00 in /  1015.8 hPa WNW 2.8 mph /  4.5 km/h 6.0 mph /  9.7 km/h 41 % 0.00 in /  0 mm
15:25 90.7 °F /  32.6 °C 63.8 °F /  17.7 °C 30.00 in /  1015.8 hPa NNE 3.9 mph /  6.3 km/h 5.0 mph /  8 km/h 41 % 0.00 in /  0 mm
15:30 90.5 °F /  32.5 °C 63.6 °F /  17.6 °C 29.99 in /  1015.5 hPa NNE 2.9 mph /  4.7 km/h 5.0 mph /  8 km/h 41 % 0.00 in /  0 mm
15:35 90.3 °F /  32.4 °C 64.1 °F /  17.8 °C 30.00 in /  1015.8 hPa NE 1.9 mph /  3.1 km/h 5.8 mph /  9.3 km/h 42 % 0.00 in /  0 mm
15:40 90.1 °F /  32.3 °C 64.6 °F /  18.1 °C 30.00 in /  1015.8 hPa NNE 2.3 mph /  3.7 km/h 4.6 mph /  7.4 km/h 43 % 0.00 in /  0 mm
15:45 89.9 °F /  32.2 °C 63.0 °F /  17.2 °C 30.00 in /  1015.8 hPa NNE 2.8 mph /  4.5 km/h 4.6 mph /  7.4 km/h 41 % 0.00 in /  0 mm
15:50 90.1 °F /  32.3 °C 63.2 °F /  17.3 °C 30.00 in /  1015.8 hPa North 3.3 mph /  5.3 km/h 4.6 mph /  7.4 km/h 41 % 0.00 in /  0 mm
15:55 90.0 °F /  32.2 °C 63.8 °F /  17.7 °C 30.00 in /  1015.8 hPa North 1.8 mph /  2.9 km/h 3.5 mph /  5.6 km/h 42 % 0.00 in /  0 mm
15:57 90.1 °F /  32.3 °C 65.9 °F /  18.8 °C 30.00 in /  1015.8 hPa NNW 1.3 mph /  2.1 km/h 3.5 mph /  5.6 km/h 45 % 0.00 in /  0 mm
16:02 90.2 °F /  32.3 °C 64.0 °F /  17.8 °C 30.00 in /  1015.8 hPa NW 0.3 mph /  0.5 km/h 3.5 mph /  5.6 km/h 42 % 0.00 in /  0 mm
16:07 90.1 °F /  32.3 °C 63.9 °F /  17.7 °C 30.00 in /  1015.8 hPa NNW 0.9 mph /  1.4 km/h 3.5 mph /  5.6 km/h 42 % 0.00 in /  0 mm
16:12 89.9 °F /  32.2 °C 64.4 °F /  18 °C 30.00 in /  1015.8 hPa NNE 1.7 mph /  2.7 km/h 3.5 mph /  5.6 km/h 43 % 0.00 in /  0 mm
16:17 89.5 °F /  31.9 °C 64.0 °F /  17.8 °C 30.00 in /  1015.8 hPa North 2.0 mph /  3.2 km/h 3.5 mph /  5.6 km/h 43 % 0.00 in /  0 mm
16:22 89.2 °F /  31.8 °C 65.1 °F /  18.4 °C 30.00 in /  1015.8 hPa WNW 0.5 mph /  0.8 km/h 3.5 mph /  5.6 km/h 45 % 0.00 in /  0 mm
16:27 88.9 °F /  31.6 °C 64.2 °F /  17.9 °C 30.00 in /  1015.8 hPa WNW 1.2 mph /  1.9 km/h 3.5 mph /  5.6 km/h 44 % 0.00 in /  0 mm
16:32 88.5 °F /  31.4 °C 63.1 °F /  17.3 °C 30.00 in /  1015.8 hPa WNW 0.6 mph /  1 km/h 2.3 mph /  3.7 km/h 43 % 0.00 in /  0 mm
16:37 88.2 °F /  31.2 °C 62.9 °F /  17.2 °C 30.00 in /  1015.8 hPa NNE 1.6 mph /  2.6 km/h 3.5 mph /  5.6 km/h 43 % 0.00 in /  0 mm
16:42 87.9 °F /  31.1 °C 63.9 °F /  17.7 °C 30.00 in /  1015.8 hPa NNE 1.5 mph /  2.4 km/h 3.5 mph /  5.6 km/h 45 % 0.00 in /  0 mm
16:47 87.8 °F /  31 °C 64.4 °F /  18 °C 29.99 in /  1015.5 hPa NNE 2.0 mph /  3.2 km/h 3.5 mph /  5.6 km/h 46 % 0.00 in /  0 mm
16:52 87.5 °F /  30.8 °C 63.5 °F /  17.5 °C 30.00 in /  1015.8 hPa NNW 0.9 mph /  1.4 km/h 2.3 mph /  3.7 km/h 45 % 0.00 in /  0 mm
16:57 87.6 °F /  30.9 °C 63.0 °F /  17.2 °C 29.99 in /  1015.5 hPa WNW 0.5 mph /  0.8 km/h 1.2 mph /  1.9 km/h 44 % 0.00 in /  0 mm
17:02 87.5 °F /  30.8 °C 63.5 °F /  17.5 °C 29.99 in /  1015.5 hPa WNW 0.3 mph /  0.5 km/h 1.2 mph /  1.9 km/h 45 % 0.00 in /  0 mm
17:07 87.3 °F /  30.7 °C 64.6 °F /  18.1 °C 29.99 in /  1015.5 hPa WNW 0.7 mph /  1.1 km/h 2.3 mph /  3.7 km/h 47 % 0.00 in /  0 mm
17:12 87.1 °F /  30.6 °C 63.8 °F /  17.7 °C 29.99 in /  1015.5 hPa Calm   1.2 mph /  1.9 km/h 46 % 0.00 in /  0 mm
17:15 87.1 °F /  30.6 °C 62.5 °F /  16.9 °C 29.99 in /  1015.5 hPa WSW 0.7 mph /  1.1 km/h 3.0 mph /  4.8 km/h 44 % 0.00 in /  0 mm
17:20 87.1 °F /  30.6 °C 63.2 °F /  17.3 °C 29.99 in /  1015.5 hPa Calm     45 % 0.00 in /  0 mm
17:25 86.9 °F /  30.5 °C 62.4 °F /  16.9 °C 29.99 in /  1015.5 hPa Calm   2.3 mph /  3.7 km/h 44 % 0.00 in /  0 mm
17:30 87.0 °F /  30.6 °C 61.8 °F /  16.6 °C 29.99 in /  1015.5 hPa WNW 0.8 mph /  1.3 km/h 2.3 mph /  3.7 km/h 43 % 0.00 in /  0 mm
17:35 86.9 °F /  30.5 °C 60.4 °F /  15.8 °C 29.99 in /  1015.5 hPa NNW 1.8 mph /  2.9 km/h 3.5 mph /  5.6 km/h 41 % 0.00 in /  0 mm
17:40 86.7 °F /  30.4 °C 61.5 °F /  16.4 °C 29.99 in /  1015.5 hPa NNW 2.1 mph /  3.4 km/h 3.5 mph /  5.6 km/h 43 % 0.00 in /  0 mm
17:42 86.6 °F /  30.3 °C 60.1 °F /  15.6 °C 29.99 in /  1015.5 hPa NNW 0.6 mph /  1 km/h 3.5 mph /  5.6 km/h 41 % 0.00 in /  0 mm
17:47 86.3 °F /  30.2 °C 60.5 °F /  15.8 °C 29.99 in /  1015.5 hPa NNE 1.4 mph /  2.3 km/h 3.5 mph /  5.6 km/h 42 % 0.00 in /  0 mm
17:52 86.0 °F /  30 °C 60.2 °F /  15.7 °C 29.99 in /  1015.5 hPa NW 1.2 mph /  1.9 km/h 3.0 mph /  4.8 km/h 42 % 0.00 in /  0 mm
17:57 85.6 °F /  29.8 °C 59.9 °F /  15.5 °C 29.99 in /  1015.5 hPa NNE 1.3 mph /  2.1 km/h 2.3 mph /  3.7 km/h 42 % 0.00 in /  0 mm
18:02 85.2 °F /  29.6 °C 60.2 °F /  15.7 °C 29.99 in /  1015.5 hPa North 1.6 mph /  2.6 km/h 3.5 mph /  5.6 km/h 43 % 0.00 in /  0 mm
18:07 84.9 °F /  29.4 °C 59.9 °F /  15.5 °C 29.99 in /  1015.5 hPa North 1.4 mph /  2.3 km/h 3.5 mph /  5.6 km/h 43 % 0.00 in /  0 mm
18:12 84.6 °F /  29.2 °C 59.0 °F /  15 °C 29.99 in /  1015.5 hPa NNW 1.1 mph /  1.8 km/h 3.5 mph /  5.6 km/h 42 % 0.00 in /  0 mm
18:17 84.5 °F /  29.2 °C 58.9 °F /  14.9 °C 29.99 in /  1015.5 hPa NW 2.2 mph /  3.5 km/h 3.5 mph /  5.6 km/h 42 % 0.00 in /  0 mm
18:22 84.3 °F /  29.1 °C 60.0 °F /  15.6 °C 29.99 in /  1015.5 hPa WNW 0.1 mph /  0.2 km/h 1.2 mph /  1.9 km/h 44 % 0.00 in /  0 mm
18:27 84.2 °F /  29 °C 60.6 °F /  15.9 °C 29.99 in /  1015.5 hPa WNW 0.3 mph /  0.5 km/h 1.2 mph /  1.9 km/h 45 % 0.00 in /  0 mm
18:32 84.1 °F /  28.9 °C 60.5 °F /  15.8 °C 29.99 in /  1015.5 hPa Calm   1.2 mph /  1.9 km/h 45 % 0.00 in /  0 mm
18:37 83.9 °F /  28.8 °C 59.7 °F /  15.4 °C 29.99 in /  1015.5 hPa WNW 0.9 mph /  1.4 km/h 2.3 mph /  3.7 km/h 44 % 0.00 in /  0 mm
18:42 83.8 °F /  28.8 °C 59.6 °F /  15.3 °C 29.99 in /  1015.5 hPa WNW 1.6 mph /  2.6 km/h 3.5 mph /  5.6 km/h 44 % 0.00 in /  0 mm
18:47 83.6 °F /  28.7 °C 59.4 °F /  15.2 °C 29.99 in /  1015.5 hPa WNW 0.2 mph /  0.3 km/h 1.2 mph /  1.9 km/h 44 % 0.00 in /  0 mm
18:52 83.6 °F /  28.7 °C 60.0 °F /  15.6 °C 30.00 in /  1015.8 hPa Calm   1.2 mph /  1.9 km/h 45 % 0.00 in /  0 mm
18:57 83.4 °F /  28.6 °C 59.8 °F /  15.4 °C 30.00 in /  1015.8 hPa Calm     45 % 0.00 in /  0 mm
19:02 83.1 °F /  28.4 °C 59.6 °F /  15.3 °C 30.00 in /  1015.8 hPa Calm     45 % 0.00 in /  0 mm
19:07 82.9 °F /  28.3 °C 59.4 °F /  15.2 °C 30.00 in /  1015.8 hPa Calm     45 % 0.00 in /  0 mm
19:12 82.6 °F /  28.1 °C 59.1 °F /  15.1 °C 30.01 in /  1016.1 hPa Calm     45 % 0.00 in /  0 mm
19:17 82.4 °F /  28 °C 59.5 °F /  15.3 °C 30.01 in /  1016.1 hPa Calm     46 % 0.00 in /  0 mm
19:22 82.1 °F /  27.8 °C 59.3 °F /  15.2 °C 30.01 in /  1016.1 hPa Calm     46 % 0.00 in /  0 mm
19:27 82.0 °F /  27.8 °C 61.5 °F /  16.4 °C 30.01 in /  1016.1 hPa Calm     50 % 0.00 in /  0 mm
19:32 81.7 °F /  27.6 °C 64.0 °F /  17.8 °C 30.01 in /  1016.1 hPa Calm     55 % 0.00 in /  0 mm
19:38 81.4 °F /  27.4 °C 64.2 °F /  17.9 °C 30.01 in /  1016.1 hPa Calm     56 % 0.00 in /  0 mm
19:43 81.1 °F /  27.3 °C 63.4 °F /  17.4 °C 30.01 in /  1016.1 hPa Calm     55 % 0.00 in /  0 mm
19:48 80.8 °F /  27.1 °C 63.6 °F /  17.6 °C 30.02 in /  1016.5 hPa Calm     56 % 0.00 in /  0 mm
19:53 80.5 °F /  26.9 °C 63.9 °F /  17.7 °C 30.01 in /  1016.1 hPa Calm     57 % 0.00 in /  0 mm
19:58 80.2 °F /  26.8 °C 64.6 °F /  18.1 °C 30.02 in /  1016.5 hPa Calm     59 % 0.00 in /  0 mm
20:03 80.0 °F /  26.7 °C 64.9 °F /  18.3 °C 30.02 in /  1016.5 hPa Calm     60 % 0.00 in /  0 mm
20:08 79.7 °F /  26.5 °C 64.6 °F /  18.1 °C 30.02 in /  1016.5 hPa Calm     60 % 0.00 in /  0 mm
20:13 79.4 °F /  26.3 °C 64.3 °F /  17.9 °C 30.02 in /  1016.5 hPa Calm     60 % 0.00 in /  0 mm
20:18 79.0 °F /  26.1 °C 63.9 °F /  17.7 °C 30.02 in /  1016.5 hPa Calm     60 % 0.00 in /  0 mm
20:23 78.6 °F /  25.9 °C 63.6 °F /  17.6 °C 30.02 in /  1016.5 hPa Calm     60 % 0.00 in /  0 mm
20:28 78.3 °F /  25.7 °C 63.7 °F /  17.6 °C 30.02 in /  1016.5 hPa Calm     61 % 0.00 in /  0 mm
20:33 78.0 °F /  25.6 °C 63.5 °F /  17.5 °C 30.03 in /  1016.8 hPa Calm     61 % 0.00 in /  0 mm
20:38 77.7 °F /  25.4 °C 63.2 °F /  17.3 °C 30.03 in /  1016.8 hPa Calm     61 % 0.00 in /  0 mm
20:43 77.3 °F /  25.2 °C 63.3 °F /  17.4 °C 30.03 in /  1016.8 hPa Calm     62 % 0.00 in /  0 mm
20:48 76.8 °F /  24.9 °C 63.2 °F /  17.3 °C 30.03 in /  1016.8 hPa Calm     63 % 0.00 in /  0 mm
20:53 76.4 °F /  24.7 °C 63.3 °F /  17.4 °C 30.03 in /  1016.8 hPa Calm     64 % 0.00 in /  0 mm
20:54 76.3 °F /  24.6 °C 63.7 °F /  17.6 °C 30.03 in /  1016.8 hPa Calm     65 % 0.00 in /  0 mm
20:59 75.8 °F /  24.3 °C 62.8 °F /  17.1 °C 30.04 in /  1017.2 hPa Calm     64 % 0.00 in /  0 mm
21:04 75.4 °F /  24.1 °C 62.8 °F /  17.1 °C 30.04 in /  1017.2 hPa Calm     65 % 0.00 in /  0 mm
21:09 75.1 °F /  23.9 °C 62.5 °F /  16.9 °C 30.04 in /  1017.2 hPa Calm     65 % 0.00 in /  0 mm
21:14 74.9 °F /  23.8 °C 62.3 °F /  16.8 °C 30.04 in /  1017.2 hPa Calm     65 % 0.00 in /  0 mm
21:19 74.8 °F /  23.8 °C 62.2 °F /  16.8 °C 30.05 in /  1017.5 hPa Calm   1.2 mph /  1.9 km/h 65 % 0.00 in /  0 mm
21:24 74.6 °F /  23.7 °C 62.5 °F /  16.9 °C 30.05 in /  1017.5 hPa Calm     66 % 0.00 in /  0 mm
21:29 74.4 °F /  23.6 °C 62.3 °F /  16.8 °C 30.05 in /  1017.5 hPa WNW 0.3 mph /  0.5 km/h 2.3 mph /  3.7 km/h 66 % 0.00 in /  0 mm
21:34 74.2 °F /  23.4 °C 62.5 °F /  16.9 °C 30.05 in /  1017.5 hPa Calm     67 % 0.00 in /  0 mm
21:39 74.0 °F /  23.3 °C 62.8 °F /  17.1 °C 30.06 in /  1017.8 hPa Calm     68 % 0.00 in /  0 mm
21:44 73.7 °F /  23.2 °C 63.3 °F /  17.4 °C 30.06 in /  1017.8 hPa Calm     70 % 0.00 in /  0 mm
21:49 73.5 °F /  23.1 °C 63.1 °F /  17.3 °C 30.05 in /  1017.5 hPa Calm     70 % 0.00 in /  0 mm
21:54 73.3 °F /  22.9 °C 63.3 °F /  17.4 °C 30.06 in /  1017.8 hPa Calm     71 % 0.00 in /  0 mm
21:59 73.1 °F /  22.8 °C 63.1 °F /  17.3 °C 30.06 in /  1017.8 hPa Calm     71 % 0.00 in /  0 mm
22:04 73.0 °F /  22.8 °C 63.0 °F /  17.2 °C 30.06 in /  1017.8 hPa Calm     71 % 0.00 in /  0 mm
22:09 72.8 °F /  22.7 °C 62.8 °F /  17.1 °C 30.06 in /  1017.8 hPa Calm     71 % 0.00 in /  0 mm
22:14 72.6 °F /  22.6 °C 62.7 °F /  17.1 °C 30.06 in /  1017.8 hPa Calm     71 % 0.00 in /  0 mm
22:19 72.5 °F /  22.5 °C 62.6 °F /  17 °C 30.06 in /  1017.8 hPa Calm     71 % 0.00 in /  0 mm
22:24 72.3 °F /  22.4 °C 62.4 °F /  16.9 °C 30.06 in /  1017.8 hPa Calm     71 % 0.00 in /  0 mm
22:30 72.1 °F /  22.3 °C 62.2 °F /  16.8 °C 30.06 in /  1017.8 hPa Calm     71 % 0.00 in /  0 mm
22:35 72.0 °F /  22.2 °C 62.1 °F /  16.7 °C 30.06 in /  1017.8 hPa Calm     71 % 0.00 in /  0 mm
22:40 71.8 °F /  22.1 °C 61.9 °F /  16.6 °C 30.06 in /  1017.8 hPa Calm     71 % 0.00 in /  0 mm
22:45 71.7 °F /  22.1 °C 62.2 °F /  16.8 °C 30.06 in /  1017.8 hPa Calm     72 % 0.00 in /  0 mm
22:50 71.5 °F /  21.9 °C 62.4 °F /  16.9 °C 30.07 in /  1018.2 hPa Calm     73 % 0.00 in /  0 mm
22:55 71.3 °F /  21.8 °C 62.6 °F /  17 °C 30.06 in /  1017.8 hPa Calm   1.2 mph /  1.9 km/h 74 % 0.00 in /  0 mm
23:00 71.1 °F /  21.7 °C 62.4 °F /  16.9 °C 30.06 in /  1017.8 hPa Calm     74 % 0.00 in /  0 mm
23:05 70.9 °F /  21.6 °C 62.2 °F /  16.8 °C 30.06 in /  1017.8 hPa Calm     74 % 0.00 in /  0 mm
23:10 70.7 °F /  21.5 °C 62.0 °F /  16.7 °C 30.06 in /  1017.8 hPa Calm     74 % 0.00 in /  0 mm
23:15 70.5 °F /  21.4 °C 62.2 °F /  16.8 °C 30.06 in /  1017.8 hPa Calm     75 % 0.00 in /  0 mm
23:20 70.3 °F /  21.3 °C 62.4 °F /  16.9 °C 30.06 in /  1017.8 hPa Calm     76 % 0.00 in /  0 mm
23:25 70.1 °F /  21.2 °C 62.6 °F /  17 °C 30.06 in /  1017.8 hPa Calm     77 % 0.00 in /  0 mm
23:30 69.8 °F /  21 °C 62.3 °F /  16.8 °C 30.06 in /  1017.8 hPa Calm     77 % 0.00 in /  0 mm
23:35 69.6 °F /  20.9 °C 62.4 °F /  16.9 °C 30.06 in /  1017.8 hPa Calm     78 % 0.00 in /  0 mm
23:40 69.4 °F /  20.8 °C 62.2 °F /  16.8 °C 30.06 in /  1017.8 hPa Calm     78 % 0.00 in /  0 mm
23:45 69.3 °F /  20.7 °C 61.8 °F /  16.6 °C 30.07 in /  1018.2 hPa Calm     77 % 0.00 in /  0 mm
23:50 69.1 °F /  20.6 °C 61.9 °F /  16.6 °C 30.07 in /  1018.2 hPa Calm     78 % 0.00 in /  0 mm
23:55 68.9 °F /  20.5 °C 61.8 °F /  16.6 °C 30.07 in /  1018.2 hPa Calm     78 % 0.00 in /  0 mm
Crab Meadow Weather
Compliments of Weather Underground - 3 mb

Script developed by  Jim McMurry - jmcmurry@mwt.net Adapted for the template by  Wim van der Kuil - Leuven-Template.eu

Recycling: Americans throw away 25,000,000,000 Styrofoam coffee cups every year.